Flight Track Log - Related Links

Times and Time Zones

All times are in EDT time to prevent confusion due to time zone crossing. See the N534QS flight status page for this flight to view local times or setup timezone preferences in your user account.

Time Position Orientation Groundspeed Altitude Reporting Facility
EDT Latitude Longitude Course Direction KTS MPH feet Rate Location/Type
Sat 01:32:33 PM 26.6714 -79.9858 90° East 257 296 5,500  Level Miami Center
Sat 01:33:33 PM 26.6333 -79.9175 122° Southeast 282 325 7,000 750 Climbing Miami Center
Sat 01:34:33 PM 26.5847 -79.8372 124° Southeast 297 342 7,000  Level Miami Center
Sat 01:35:33 PM 26.5464 -79.7711 123° Southeast 297 342 7,000 700 Level Miami Center
Sat 01:36:33 PM 26.5000 -79.6889 122° Southeast 286 329 8,400 1,650 Climbing Miami Center
Sat 01:37:00 PM 26.6667 -79.1784 90° East  Level FlightAware Approximate
Sat 01:37:33 PM 26.5058 -79.6053 86° East 273 314 10,300  Level Miami Center
Sat 01:38:33 PM 26.5119 -79.4894 87° East 317 365 12,800 2,700 Climbing Miami Center
Sat 01:39:33 PM 26.5181 -79.3828 86° East 365 420 15,700 2,900 Climbing Miami Center
Sat 01:40:33 PM 26.5267 -79.2461 86° East 399 459 18,600 2,800 Climbing Miami Center
Sat 01:41:33 PM 26.5372 -79.1161 85° East 410 472 21,300 2,700 Climbing Miami Center
Sat 01:42:33 PM 26.5456 -78.9792 86° East 421 484 24,000 2,650 Climbing Miami Center
Sat 01:43:33 PM 26.5497 -78.8308 88° East 451 519 26,600 2,500 Climbing Miami Center
Sat 01:44:33 PM 26.5286 -78.6817 99° East 479 551 29,000 2,100 Climbing Miami Center
Sat 01:45:33 PM 26.4694 -78.5600 118° Southeast 469 540 30,800 2,300 Climbing Miami Center
Sat 01:46:33 PM 26.3894 -78.4314 125° Southeast 483 556 33,600 2,100 Climbing Miami Center
Sat 01:47:33 PM 26.3178 -78.2961 121° Southeast 495 570 35,000 700 Climbing Miami Center
Sat 01:48:33 PM 26.2353 -78.1722 127° Southeast 500 575 35,000  Level Miami Center
Sat 01:49:33 PM 26.1550 -78.0233 121° Southeast 500 575 35,000  Level Miami Center
Sat 01:50:33 PM 26.0786 -77.8928 123° Southeast 505 581 35,000  Level Miami Center
Sat 01:51:33 PM 25.9981 -77.7742 127° Southeast 505 581 35,000  Level Miami Center
Sat 01:52:33 PM 25.9256 -77.6328 120° Southeast 505 581 35,000  Level Miami Center
Sat 01:53:33 PM 25.8469 -77.5053 124° Southeast 505 581 35,000  Level Miami Center
Sat 01:54:33 PM 25.7783 -77.3850 122° Southeast 510 587 35,000  Level Miami Center
Sat 01:55:33 PM 25.6994 -77.2556 124° Southeast 510 587 35,000  Level Miami Center
Sat 01:56:33 PM 25.6203 -77.1239 124° Southeast 510 587 35,000  Level Miami Center
Sat 01:57:33 PM 25.5411 -76.9878 123° Southeast 517 595 35,000 3,000 Level Miami Center
Sat 01:58:33 PM 25.4575 -76.8472 123° Southeast 524 603 41,000 3,000 Climbing Miami Center
Sat 01:59:33 PM 25.3739 -76.7117 124° Southeast 529 609 41,000  Level Miami Center
Sat 02:00:33 PM 25.2753 -76.5692 127° Southeast 543 625 41,000 -3,000 Level Miami Center
Sat 02:01:33 PM 25.2039 -76.4361 121° Southeast 521 600 35,000 -3,000 Descending Miami Center
Sat 02:02:33 PM 25.1219 -76.3011 124° Southeast 527 606 35,000  Level Miami Center
Sat 02:03:33 PM 25.0400 -76.1661 124° Southeast 532 612 35,000  Level Miami Center
Sat 02:04:33 PM 24.9556 -76.0289 124° Southeast 532 612 35,000  Level Miami Center
Sat 02:05:33 PM 24.8483 -75.9039 133° Southeast 518 596 35,000  Level Miami Center
Sat 02:06:33 PM 24.7367 -75.7972 139° Southeast 518 596 35,000 250 Level Miami Center
Sat 02:07:33 PM 24.6253 -75.6883 138° Southeast 524 603 35,500 850 Climbing Miami Center
Sat 02:08:33 PM 24.5178 -75.5797 137° Southeast 524 603 36,700 1,200 Climbing Miami Center
Sat 02:09:33 PM 24.4122 -75.4689 136° Southeast 529 609 37,900 1,200 Climbing Miami Center
Sat 02:10:33 PM 24.3169 -75.3469 131° Southeast 524 603 39,100 1,200 Climbing Miami Center
Sat 02:11:33 PM 24.2361 -75.2089 123° Southeast 529 609 40,300 950 Climbing Miami Center
Sat 02:12:33 PM 24.1531 -75.0733 124° Southeast 539 620 41,000 350 Climbing Miami Center
Sat 02:13:33 PM 24.0739 -74.9403 123° Southeast 533 613 41,000  Level Miami Center
Sat 02:14:33 PM 24.0078 -74.8344 124° Southeast 528 608 41,000  Level Miami Center
Sat 02:15:33 PM 23.9181 -74.6881 124° Southeast 528 608 41,000  Level Miami Center
Sat 02:16:33 PM 23.8408 -74.5575 123° Southeast 528 608 41,000  Level Miami Center
Sat 02:17:33 PM 23.7594 -74.4275 124° Southeast 528 608 41,000  Level Miami Center
Sat 02:18:33 PM 23.6756 -74.2953 125° Southeast 528 608 41,000  Level Miami Center
Sat 02:19:33 PM 23.5939 -74.1608 124° Southeast 528 608 41,000  Level Miami Center
Sat 02:20:33 PM 23.5142 -74.0311 124° Southeast 528 608 41,000  Level Miami Center
Sat 02:21:33 PM 23.4322 -73.8994 124° Southeast 528 608 41,000  Level Miami Center
Sat 02:22:33 PM 23.3522 -73.7656 123° Southeast 528 608 41,000  Level Miami Center
Sat 02:23:33 PM 23.2681 -73.6386 126° Southeast 528 608 41,000  Level Miami Center
Sat 02:24:33 PM 23.1878 -73.5053 123° Southeast 528 608 41,000  Level Miami Center
Sat 02:25:33 PM 23.1036 -73.3764 125° Southeast 528 608 41,000  Level Miami Center
Sat 02:26:33 PM 23.0231 -73.2456 124° Southeast 528 608 41,000  Level Miami Center
Sat 02:27:33 PM 22.9469 -73.1169 123° Southeast 528 608 41,000  Level Miami Center
Sat 02:28:33 PM 22.8642 -72.9839 124° Southeast 522 601 41,000  Level Miami Center
Sat 02:29:33 PM 22.7814 -72.8536 125° Southeast 527 606 41,000  Level Miami Center
Sat 02:30:33 PM 22.6967 -72.7281 126° Southeast 527 606 41,000  Level Miami Center
Sat 02:31:33 PM 22.6158 -72.5981 124° Southeast 527 606 41,000  Level Miami Center
Sat 02:32:33 PM 22.5328 -72.4681 125° Southeast 527 606 41,000  Level Miami Center
Sat 02:33:33 PM 22.4517 -72.3383 124° Southeast 527 606 41,000  Level Miami Center
Sat 02:34:33 PM 22.3703 -72.2064 124° Southeast 527 606 41,000  Level Miami Center
Sat 02:35:33 PM 22.2892 -72.0792 125° Southeast 527 606 41,000  Level Miami Center
Sat 02:36:33 PM 22.2058 -71.9500 125° Southeast 527 606 41,000  Level Miami Center
Sat 02:37:33 PM 22.1244 -71.8208 124° Southeast 527 606 41,000  Level Miami Center
Sat 02:38:33 PM 22.0342 -71.6833 125° Southeast 527 606 41,000  Level Miami Center
Sat 02:39:33 PM 21.9506 -71.5547 125° Southeast 527 606 41,000  Level Miami Center
Sat 02:40:33 PM 21.8667 -71.4261 125° Southeast 527 606 41,000  Level Miami Center
Sat 02:41:33 PM 21.7847 -71.2978 124° Southeast 527 606 41,000  Level Miami Center
Sat 02:42:33 PM 21.7028 -71.1694 124° Southeast 527 606 41,000  Level Miami Center
Sat 02:43:33 PM 21.6208 -71.0392 124° Southeast 527 606 41,000  Level Miami Center
Sat 02:44:33 PM 21.5367 -70.9089 125° Southeast 532 612 41,000  Level Miami Center
Sat 02:45:33 PM 21.4503 -70.7858 127° Southeast 527 606 41,000  Level Miami Center
Sat 02:46:33 PM 21.3661 -70.6628 126° Southeast 527 606 41,000  Level Miami Center
Sat 02:47:33 PM 21.2819 -70.5356 125° Southeast 527 606 41,000  Level Miami Center
Sat 02:48:33 PM 21.2153 -70.4361 126° Southeast 527 606 41,000  Level Miami Center
Sat 02:49:33 PM 21.1261 -70.3006 125° Southeast 522 601 41,000  Level Miami Center
Sat 02:50:33 PM 21.0414 -70.1758 126° Southeast 522 601 41,000  Level Miami Center
Sat 02:51:33 PM 20.9567 -70.0492 126° Southeast 522 601 41,000  Level Miami Center
Sat 02:52:33 PM 20.8719 -69.9247 126° Southeast 528 608 41,000  Level Miami Center
Sat 02:53:33 PM 20.7872 -69.8006 126° Southeast 528 608 41,000  Level Miami Center
Sat 02:54:33 PM 20.7042 -69.6719 125° Southeast 528 608 41,000  Level Miami Center
Sat 02:55:33 PM 20.6194 -69.5503 127° Southeast 523 602 41,000  Level Miami Center
Sat 02:56:33 PM 20.5364 -69.4244 125° Southeast 523 602 41,000  Level Miami Center
Sat 02:57:33 PM 20.4533 -69.3008 126° Southeast 523 602 41,000  Level Miami Center
Sat 02:58:33 PM 20.3681 -69.1772 126° Southeast 523 602 41,000  Level Miami Center
Sat 02:59:33 PM 20.2869 -69.0517 125° Southeast 523 602 41,000  Level Miami Center
Sat 03:00:33 PM 20.1975 -68.9311 128° Southeast 528 608 41,000  Level Miami Center
Sat 03:01:33 PM 20.1122 -68.8058 126° Southeast 528 608 41,000  Level Miami Center
Sat 03:02:33 PM 20.0306 -68.6808 125° Southeast 528 608 41,000  Level Miami Center
Sat 03:03:33 PM 19.9450 -68.5581 127° Southeast 528 608 41,000  Level Miami Center
Sat 03:04:33 PM 19.8656 -68.4308 124° Southeast 522 601 41,000  Level Miami Center
Sat 03:05:33 PM 19.7839 -68.3039 124° Southeast 522 601 41,000  Level Miami Center
Sat 03:05:48 PM 19.7500 -68.2500 124° Southeast 520 598 41,000  Level San Juan Center
Sat 03:06:48 PM 19.6667 -68.1333 127° Southeast 520 598 41,000  Level San Juan Center
Sat 03:07:48 PM 19.6000 -68.0000 118° Southeast 520 598 41,000  Level San Juan Center
Sat 03:08:49 PM 19.5167 -67.8667 124° Southeast 520 598 41,000  Level San Juan Center
Sat 03:09:49 PM 19.4333 -67.7500 127° Southeast 510 587 41,000  Level San Juan Center
Sat 03:10:49 PM 19.3500 -67.6167 124° Southeast 520 598 41,000  Level San Juan Center
Sat 03:11:50 PM 19.2667 -67.4833 123° Southeast 520 598 41,000  Level San Juan Center
Sat 03:12:50 PM 19.1833 -67.3667 127° Southeast 520 598 41,000  Level San Juan Center
Sat 03:13:50 PM 19.1000 -67.2333 123° Southeast 530 610 41,000  Level San Juan Center
Sat 03:14:50 PM 19.0167 -67.1000 123° Southeast 520 598 41,000  Level San Juan Center
Sat 03:15:51 PM 18.9500 -66.9667 118° Southeast 520 598 41,000  Level San Juan Center
Sat 03:16:51 PM 18.8667 -66.8333 123° Southeast 520 598 41,000  Level San Juan Center
Sat 03:17:51 PM 18.7833 -66.7167 127° Southeast 520 598 41,000  Level San Juan Center
Sat 03:18:51 PM 18.7000 -66.5833 123° Southeast 520 598 41,000  Level San Juan Center
Sat 03:19:52 PM 18.6167 -66.4667 127° Southeast 520 598 41,000  Level San Juan Center
Sat 03:20:52 PM 18.5333 -66.3500 127° Southeast 510 587 41,000  Level San Juan Center
Sat 03:21:52 PM 18.4500 -66.2167 123° Southeast 510 587 41,000  Level San Juan Center
Sat 03:22:53 PM 18.3667 -66.1000 127° Southeast 520 598 41,000  Level San Juan Center
Sat 03:23:53 PM 18.2833 -65.9667 123° Southeast 530 610 41,000  Level San Juan Center
Sat 03:24:53 PM 18.2000 -65.8333 123° Southeast 510 587 41,000  Level San Juan Center
Sat 03:25:54 PM 18.1167 -65.7167 127° Southeast 510 587 41,000  Level San Juan Center
Sat 03:26:54 PM 18.0333 -65.6000 127° Southeast 500 575 41,000  Level San Juan Center
Sat 03:27:54 PM 17.9500 -65.4667 123° Southeast 510 587 41,000  Level San Juan Center
Sat 03:28:55 PM 17.8667 -65.3500 127° Southeast 520 598 41,000  Level San Juan Center
Sat 03:29:55 PM 17.7833 -65.2167 123° Southeast 520 598 41,000  Level San Juan Center
Sat 03:30:55 PM 17.7000 -65.1000 127° Southeast 510 587 41,000  Level San Juan Center
Sat 03:31:56 PM 17.6167 -64.9667 123° Southeast 510 587 41,000  Level San Juan Center
Sat 03:32:56 PM 17.5333 -64.8500 127° Southeast 510 587 41,000  Level San Juan Center
Sat 03:33:56 PM 17.4667 -64.7333 121° Southeast 510 587 41,000  Level San Juan Center
Sat 03:34:57 PM 17.3833 -64.6000 123° Southeast 510 587 41,000  Level San Juan Center
Sat 03:35:57 PM 17.3000 -64.4833 127° Southeast 510 587 41,000  Level San Juan Center
Sat 03:36:57 PM 17.2167 -64.3667 127° Southeast 510 587 41,000  Level San Juan Center
Sat 03:37:58 PM 17.1333 -64.2333 123° Southeast 510 587 41,000  Level San Juan Center
Sat 03:38:58 PM 17.0500 -64.1167 127° Southeast 510 587 41,000  Level San Juan Center
Sat 03:39:58 PM 16.9667 -63.9833 123° Southeast 510 587 41,000  Level San Juan Center
Sat 03:40:59 PM 16.8833 -63.8833 131° Southeast 510 587 41,000  Level San Juan Center
Sat 03:41:59 PM 16.8000 -63.7500 123° Southeast 510 587 41,000  Level San Juan Center
Sat 03:42:59 PM 16.7167 -63.6333 127° Southeast 510 587 41,000  Level San Juan Center
Sat 03:43:59 PM 16.6333 -63.5167 127° Southeast 510 587 41,000  Level San Juan Center
Sat 03:45:00 PM 16.5500 -63.3833 123° Southeast 510 587 41,000  Level San Juan Center
Sat 03:46:00 PM 16.4667 -63.2667 127° Southeast 510 587 41,000  Level San Juan Center
Sat 03:47:00 PM 16.4000 -63.1667 125° Southeast 500 575 41,000  Level San Juan Center
Sat 03:48:01 PM 16.3333 -63.0333 118° Southeast 510 587 41,000  Level San Juan Center
Sat 03:50:00 PM 16.1558 -62.8310 132° Southeast  Level FlightAware Approximate
Sat 03:57:00 PM 15.5370 -62.1104 132° Southeast  Level FlightAware Approximate
Sat 03:58:00 PM 15.4484 -62.0078 132° Southeast  Level FlightAware Approximate
Sat 03:59:00 PM 15.3597 -61.9054 132° Southeast  Level FlightAware Approximate
Sat 04:00:00 PM 15.2710 -61.8030 132° Southeast  Level FlightAware Approximate
Sat 04:01:00 PM 15.1822 -61.7007 132° Southeast  Level FlightAware Approximate
Sat 04:02:00 PM 15.0934 -61.5985 132° Southeast  Level FlightAware Approximate
Sat 04:03:00 PM 15.0045 -61.4964 132° Southeast  Level FlightAware Approximate
Sat 04:04:00 PM 14.9156 -61.3944 132° Southeast  Level FlightAware Approximate
Sat 04:05:00 PM 14.8266 -61.2924 132° Southeast  Level FlightAware Approximate
Sat 04:06:00 PM 14.7376 -61.1906 132° Southeast  Level FlightAware Approximate
Sat 04:07:00 PM 14.6486 -61.0888 132° Southeast  Level FlightAware Approximate
Sat 04:08:00 PM 14.5587 -60.9879 132° Southeast  Level FlightAware Approximate
Sat 04:09:00 PM 14.4683 -60.8879 142° Southeast  Level FlightAware Approximate
Sat 04:10:00 PM 14.3667 -60.8000 136° Southeast  Level FlightAware Approximate
Sat 04:11:00 PM 14.2713 -60.7047 136° Southeast  Level FlightAware Approximate
Sat 04:12:00 PM 14.1849 -60.6016 136° Southeast  Level FlightAware Approximate
Sat 04:13:00 PM 14.0896 -60.5063 136° Southeast  Level FlightAware Approximate
Sat 04:14:00 PM 13.9944 -60.4109 136° Southeast  Level FlightAware Approximate
Sat 04:15:00 PM 13.8992 -60.3156 136° Southeast  Level FlightAware Approximate
Sat 04:16:00 PM 13.8040 -60.2204 136° Southeast  Level FlightAware Approximate
Sat 04:17:00 PM 13.7087 -60.1252 136° Southeast  Level FlightAware Approximate
Sat 04:18:00 PM 13.6134 -60.0301 136° Southeast  Level FlightAware Approximate
Sat 04:19:00 PM 13.5182 -59.9349 136° Southeast  Level FlightAware Approximate
Sat 04:20:00 PM 13.4231 -59.8397 136° Southeast  Level FlightAware Approximate
Sat 04:21:00 PM 13.3279 -59.7446 136° Southeast  Level FlightAware Approximate
Sat 04:22:00 PM 13.2328 -59.6495 136° Southeast  Level FlightAware Approximate
Sat 04:23:00 PM 13.1450 -59.5546 144° Southeast  Level FlightAware Approximate
Sat 04:24:00 PM 13.0746 -59.4925 90° East  Level Estimated
Sat 04:25:00 PM 13.0746 -59.4925 90° East  Level Estimated
Sat 04:26:00 PM 13.0746 -59.4925 90° East  Level Estimated
Sat 04:27:00 PM 13.0746 -59.4925 90° East  Level Estimated
Sat 04:28:00 PM 13.0746 -59.4925 90° East  Level Estimated
Sat 04:29:00 PM 13.0746 -59.4925 90° East  Level Estimated
Sat 04:30:00 PM 13.0746 -59.4925 90° East  Level Estimated
Sat 04:31:00 PM 13.0746 -59.4925 90° East  Level Estimated
Sat 04:32:00 PM 13.0746 -59.4925 90° East  Level Estimated
Sat 04:33:00 PM 13.0746 -59.4925 90° East  Level Estimated
Sat 04:34:00 PM 13.0746 -59.4925 90° East  Level Estimated
Sat 04:35:00 PM 13.0746 -59.4925 90° East  Level Estimated
Sat 04:36:00 PM 13.0746 -59.4925 90° East  Level Estimated
Sat 04:37:00 PM 13.0746 -59.4925 90° East  Level Estimated
Sat 04:38:00 PM 13.0746 -59.4925 90° East  Level Estimated
Sat 04:39:00 PM 13.0746 -59.4925 90° East  Level Estimated
Sat 04:40:00 PM 13.0746 -59.4925 90° East  Level Estimated
Sat 04:41:00 PM 13.0746 -59.4925 90° East  Level Estimated
Sat 04:42:00 PM 13.0746 -59.4925 90° East  Level Estimated
Sat 04:43:00 PM 13.0746 -59.4925 90° East  Level Estimated
Sat 04:44:00 PM 13.0746 -59.4925 90° East  Level Estimated
Sat 04:45:00 PM 13.0746 -59.4925 90° East  Level Estimated
Sat 04:46:00 PM 13.0746 -59.4925 90° East  Level Estimated
Sat 04:47:00 PM 13.0746 -59.4925 90° East  Level Estimated

Login

Don't have an account? Register now (free) for customized features, flight alerts, and more!